createdAt,value
2024-02-29T00:00:16.857Z,9.35
2024-02-29T00:02:45.805Z,9.20
2024-02-29T00:05:13.969Z,10.40
2024-02-29T00:07:42.088Z,12.05
2024-02-29T00:10:10.767Z,9.07
2024-02-29T00:12:39.741Z,10.60
2024-02-29T00:15:08.496Z,11.27
2024-02-29T00:17:36.192Z,9.90
2024-02-29T00:20:09.965Z,9.52
2024-02-29T00:22:37.701Z,8.65
2024-02-29T00:25:06.172Z,10.73
2024-02-29T00:27:34.050Z,8.20
2024-02-29T00:30:01.748Z,9.43
2024-02-29T00:32:29.540Z,10.45
2024-02-29T00:34:58.061Z,10.13
2024-02-29T00:37:27.159Z,10.70
2024-02-29T00:39:54.917Z,9.00
2024-02-29T00:42:22.588Z,9.32
2024-02-29T00:44:50.231Z,9.40
2024-02-29T00:47:17.906Z,9.18
2024-02-29T00:49:45.614Z,8.70
2024-02-29T00:52:13.410Z,9.38
2024-02-29T00:54:42.495Z,9.57
2024-02-29T00:57:10.151Z,8.27
2024-02-29T00:59:37.839Z,8.75
2024-02-29T01:02:05.851Z,9.18
2024-02-29T01:04:33.555Z,7.97
2024-02-29T01:07:01.231Z,8.38
2024-02-29T01:09:30.256Z,8.35
2024-02-29T01:11:59.334Z,8.27
2024-02-29T01:14:28.150Z,8.75
2024-02-29T01:16:57.472Z,8.52
2024-02-29T01:19:25.149Z,10.13
2024-02-29T01:21:52.839Z,9.07
2024-02-29T01:24:20.552Z,9.43
2024-02-29T01:26:48.204Z,8.45
2024-02-29T01:29:17.256Z,8.07
2024-02-29T01:31:46.744Z,9.02
2024-02-29T01:34:14.512Z,8.60
2024-02-29T01:36:44.996Z,8.63
2024-02-29T01:39:12.795Z,8.75
2024-02-29T01:41:40.483Z,7.57
2024-02-29T01:44:08.142Z,9.02
2024-02-29T01:46:37.207Z,8.18
2024-02-29T01:49:05.001Z,8.63
2024-02-29T01:51:34.408Z,7.85
2024-02-29T01:54:02.307Z,8.05
2024-02-29T01:56:30.024Z,8.00
2024-02-29T01:58:57.849Z,7.90
2024-02-29T02:01:26.051Z,9.25
2024-02-29T02:03:55.121Z,8.20
2024-02-29T02:06:22.824Z,8.40
2024-02-29T02:08:50.518Z,8.80
2024-02-29T02:11:18.419Z,9.30
2024-02-29T02:13:46.181Z,7.88
2024-02-29T02:16:14.258Z,8.35
2024-02-29T02:18:41.996Z,9.15
2024-02-29T02:21:11.052Z,9.73
2024-02-29T02:23:38.729Z,7.93
2024-02-29T02:26:06.455Z,8.20
2024-02-29T02:28:34.080Z,9.70
2024-02-29T02:31:01.834Z,8.90
2024-02-29T02:33:29.632Z,8.35
2024-02-29T02:35:57.884Z,8.20
2024-02-29T02:38:26.971Z,8.82
2024-02-29T02:40:54.610Z,7.78
2024-02-29T02:43:22.333Z,8.27
2024-02-29T02:45:50.042Z,9.80
2024-02-29T02:48:17.699Z,7.95
2024-02-29T02:50:45.381Z,8.90
2024-02-29T02:53:13.213Z,7.82
2024-02-29T02:55:42.226Z,7.82
2024-02-29T02:58:09.905Z,7.57
2024-02-29T03:00:37.940Z,7.60
2024-02-29T03:03:05.830Z,8.85
2024-02-29T03:05:33.676Z,7.75
2024-02-29T03:08:01.319Z,8.10
2024-02-29T03:10:28.957Z,8.70
2024-02-29T03:12:58.072Z,8.32
2024-02-29T03:15:25.793Z,7.50
2024-02-29T03:17:57.005Z,8.40
2024-02-29T03:20:24.921Z,7.80
2024-02-29T03:22:52.728Z,8.70
2024-02-29T03:25:21.337Z,8.55
2024-02-29T03:27:49.632Z,8.45
2024-02-29T03:30:19.208Z,7.93
2024-02-29T03:32:47.018Z,8.02
2024-02-29T03:35:14.821Z,7.70
2024-02-29T03:37:42.541Z,8.23
2024-02-29T03:40:11.366Z,8.48
2024-02-29T03:42:40.812Z,8.18
2024-02-29T03:45:09.540Z,8.32
2024-02-29T03:47:38.698Z,7.60
2024-02-29T03:50:07.537Z,7.18
2024-02-29T03:52:35.177Z,8.60
2024-02-29T03:55:02.961Z,8.77
2024-02-29T03:57:30.731Z,8.68
2024-02-29T03:59:58.457Z,9.70
2024-02-29T04:02:26.111Z,8.68
2024-02-29T04:04:55.589Z,9.23
2024-02-29T04:07:22.398Z,9.35
2024-02-29T04:09:55.603Z,8.02
2024-02-29T04:12:23.598Z,9.20
2024-02-29T04:14:51.235Z,7.95
2024-02-29T04:17:19.119Z,9.10
2024-02-29T04:19:47.059Z,8.45
2024-02-29T04:22:17.064Z,8.98
2024-02-29T04:24:45.966Z,7.88
2024-02-29T04:27:13.661Z,7.90
2024-02-29T04:29:41.308Z,8.20
2024-02-29T04:32:09.162Z,8.07
2024-02-29T04:34:37.038Z,7.50
2024-02-29T04:37:05.093Z,8.40
2024-02-29T04:39:34.216Z,8.70
2024-02-29T04:42:01.935Z,7.60
2024-02-29T04:44:30.624Z,7.47
2024-02-29T04:46:58.289Z,7.93
2024-02-29T04:49:26.033Z,7.90
2024-02-29T04:51:54.471Z,8.05
2024-02-29T04:54:22.188Z,7.90
2024-02-29T04:56:51.197Z,8.02
2024-02-29T04:59:18.982Z,6.90
2024-02-29T05:01:46.878Z,7.68
2024-02-29T05:04:15.127Z,6.63
2024-02-29T05:06:43.128Z,7.95
2024-02-29T05:09:10.873Z,8.55
2024-02-29T05:11:39.911Z,7.20
2024-02-29T05:14:09.349Z,7.65
2024-02-29T05:16:37.090Z,8.80
2024-02-29T05:19:04.920Z,7.25
2024-02-29T05:21:32.650Z,7.10
2024-02-29T05:24:00.566Z,6.72
2024-02-29T05:26:28.243Z,8.25
2024-02-29T05:28:56.630Z,7.35
2024-02-29T05:31:25.694Z,7.40
2024-02-29T05:33:53.386Z,7.82
2024-02-29T05:36:21.064Z,7.85
2024-02-29T05:38:51.599Z,7.05
2024-02-29T05:41:19.558Z,7.20
2024-02-29T05:43:47.300Z,6.70
2024-02-29T05:46:15.540Z,6.25
2024-02-29T05:48:44.672Z,5.60
2024-02-29T05:51:12.606Z,6.60
2024-02-29T05:53:40.557Z,6.60
2024-02-29T05:56:08.206Z,6.53
2024-02-29T05:58:35.837Z,7.13
2024-02-29T06:01:04.304Z,7.57
2024-02-29T06:03:32.150Z,8.10
2024-02-29T06:06:02.261Z,6.53
2024-02-29T06:08:30.214Z,6.00
2024-02-29T06:10:58.518Z,6.20
2024-02-29T06:13:26.252Z,6.53
2024-02-29T06:15:53.952Z,6.35
2024-02-29T06:18:21.615Z,7.03
2024-02-29T06:20:49.293Z,6.20
2024-02-29T06:23:18.318Z,6.47
2024-02-29T06:25:45.983Z,6.40
2024-02-29T06:28:13.851Z,6.72
2024-02-29T06:30:41.785Z,6.38
2024-02-29T06:33:09.531Z,5.95
2024-02-29T06:35:37.261Z,6.88
2024-02-29T06:38:05.029Z,6.20
2024-02-29T06:40:34.050Z,5.90
2024-02-29T06:43:01.757Z,6.90
2024-02-29T06:45:29.434Z,6.07
2024-02-29T06:47:58.398Z,6.30
2024-02-29T06:50:26.146Z,6.53
2024-02-29T06:52:55.051Z,7.40
2024-02-29T06:55:22.992Z,7.47
2024-02-29T06:57:52.278Z,6.32
2024-02-29T07:00:20.558Z,7.45
2024-02-29T07:02:48.248Z,6.30
2024-02-29T07:05:16.097Z,6.55
2024-02-29T07:07:45.956Z,6.88
2024-02-29T07:10:14.096Z,6.57
2024-02-29T07:12:42.562Z,5.47
2024-02-29T07:15:12.094Z,5.90
2024-02-29T07:17:39.804Z,6.00
2024-02-29T07:20:09.133Z,6.90
2024-02-29T07:22:36.824Z,6.30
2024-02-29T07:25:08.680Z,6.30
2024-02-29T07:27:38.269Z,6.53
2024-02-29T07:30:08.356Z,5.10
2024-02-29T07:32:37.434Z,5.88
2024-02-29T07:35:05.657Z,5.57
2024-02-29T07:37:33.528Z,5.50
2024-02-29T07:40:02.165Z,7.20
2024-02-29T07:42:29.943Z,5.60
2024-02-29T07:44:57.615Z,6.68
2024-02-29T07:47:25.259Z,7.68
2024-02-29T07:49:54.267Z,5.72
2024-02-29T07:52:22.284Z,6.35
2024-02-29T07:54:50.999Z,5.90
2024-02-29T07:57:18.715Z,6.40
2024-02-29T07:59:46.463Z,6.68
2024-02-29T08:02:14.135Z,6.00
2024-02-29T08:04:41.936Z,5.93
2024-02-29T08:07:12.043Z,6.40
2024-02-29T08:09:39.813Z,6.50
2024-02-29T08:12:08.338Z,6.00
2024-02-29T08:14:36.221Z,5.60
2024-02-29T08:17:03.961Z,5.47
2024-02-29T08:19:31.616Z,6.00
2024-02-29T08:21:59.329Z,5.30
2024-02-29T08:24:28.352Z,5.83
2024-02-29T08:26:56.080Z,5.10
2024-02-29T08:29:23.754Z,5.57
2024-02-29T08:31:51.876Z,5.90
2024-02-29T08:34:19.737Z,5.40
2024-02-29T08:36:47.697Z,5.30
2024-02-29T08:39:15.747Z,5.50
2024-02-29T08:41:45.416Z,5.20
2024-02-29T08:44:13.213Z,5.33
2024-02-29T08:46:40.867Z,5.47
2024-02-29T08:49:08.639Z,5.60
2024-02-29T08:51:36.900Z,4.80
2024-02-29T08:54:07.561Z,5.40
2024-02-29T08:56:35.415Z,5.60
2024-02-29T08:59:04.498Z,5.00
2024-02-29T09:01:32.289Z,4.63
2024-02-29T09:04:00.072Z,4.47
2024-02-29T09:06:38.808Z,4.53
2024-02-29T09:09:09.289Z,4.93
2024-02-29T09:11:37.219Z,4.67
2024-02-29T09:14:06.517Z,4.00
2024-02-29T09:16:34.982Z,5.10
2024-02-29T09:19:04.239Z,4.50
2024-02-29T09:21:32.244Z,5.23
2024-02-29T09:23:59.879Z,4.70
2024-02-29T09:26:27.535Z,4.93
2024-02-29T09:28:55.248Z,4.27
2024-02-29T09:31:24.294Z,4.87
2024-02-29T09:33:56.387Z,4.53
2024-02-29T09:36:24.084Z,4.30
2024-02-29T09:38:51.712Z,4.90
2024-02-29T09:43:52.883Z,4.30
2024-02-29T09:46:22.232Z,5.37
2024-02-29T09:48:53.093Z,3.97
2024-02-29T09:51:22.671Z,4.00
2024-02-29T09:53:51.815Z,4.20
2024-02-29T09:56:23.772Z,4.97
2024-02-29T09:58:52.919Z,4.87
2024-02-29T10:01:21.557Z,4.37
2024-02-29T10:03:50.950Z,5.00
2024-02-29T10:06:18.746Z,4.90
2024-02-29T10:08:46.477Z,4.70
2024-02-29T10:11:14.262Z,4.20
2024-02-29T10:13:43.311Z,5.03
2024-02-29T10:16:12.385Z,4.73
2024-02-29T10:18:40.273Z,5.17
2024-02-29T10:21:12.617Z,4.33
2024-02-29T10:23:40.739Z,4.33
2024-02-29T10:26:08.828Z,3.87
2024-02-29T10:28:37.041Z,4.33
2024-02-29T10:31:05.497Z,4.60
2024-02-29T10:33:38.759Z,4.27
2024-02-29T10:36:17.051Z,4.40
2024-02-29T10:38:44.756Z,4.10
2024-02-29T10:41:14.606Z,5.20
2024-02-29T10:43:46.433Z,4.63
2024-02-29T10:46:16.540Z,4.50
2024-02-29T10:48:50.742Z,4.93
2024-02-29T10:51:28.755Z,3.90
2024-02-29T10:54:08.283Z,3.77
2024-02-29T10:56:37.727Z,4.03
2024-02-29T10:59:08.428Z,4.63
2024-02-29T11:01:37.606Z,4.87
2024-02-29T11:04:06.880Z,4.80
2024-02-29T11:06:39.707Z,4.40
2024-02-29T11:09:09.599Z,4.47
2024-02-29T11:11:37.440Z,4.23
2024-02-29T11:14:09.049Z,4.67
2024-02-29T11:16:39.813Z,4.47
2024-02-29T11:19:08.742Z,5.07
2024-02-29T11:21:37.832Z,4.27
2024-02-29T11:24:06.995Z,4.77
2024-02-29T11:26:35.815Z,6.77
2024-02-29T11:29:13.696Z,4.37
2024-02-29T11:31:47.626Z,4.10
2024-02-29T11:34:17.517Z,3.70
2024-02-29T11:36:48.287Z,4.70
2024-02-29T11:39:18.483Z,4.40
2024-02-29T11:41:46.443Z,3.80
2024-02-29T11:44:14.241Z,3.87
2024-02-29T11:46:47.009Z,4.00
2024-02-29T11:49:15.125Z,3.10
2024-02-29T11:51:43.089Z,3.83
2024-02-29T11:54:12.392Z,3.83
2024-02-29T11:56:40.184Z,3.77
2024-02-29T11:59:10.426Z,3.27
2024-02-29T12:01:38.538Z,4.07
2024-02-29T12:04:07.609Z,4.33
2024-02-29T12:06:36.571Z,3.60
2024-02-29T12:09:04.515Z,3.50
2024-02-29T12:11:33.769Z,4.93
2024-02-29T12:14:01.673Z,3.97
2024-02-29T12:16:30.238Z,3.97
2024-02-29T12:18:58.022Z,3.97
2024-02-29T12:21:27.406Z,4.03
2024-02-29T12:23:56.803Z,3.70
2024-02-29T12:26:25.904Z,2.93
2024-02-29T12:28:55.342Z,3.73
2024-02-29T12:31:23.185Z,3.43
2024-02-29T12:33:51.031Z,4.57
2024-02-29T12:36:19.991Z,3.30
2024-02-29T12:38:49.337Z,3.57
2024-02-29T12:41:17.627Z,3.13
2024-02-29T12:43:47.827Z,3.60
2024-02-29T12:46:17.584Z,3.27
2024-02-29T12:48:47.202Z,4.10
2024-02-29T12:51:15.252Z,3.27
2024-02-29T12:53:42.887Z,3.17
2024-02-29T12:56:10.864Z,3.40
2024-02-29T12:58:38.639Z,3.10
2024-02-29T13:01:08.192Z,3.50
2024-02-29T13:03:37.493Z,3.03
2024-02-29T13:06:05.624Z,2.83
2024-02-29T13:08:34.347Z,2.87
2024-02-29T13:11:02.001Z,2.57
2024-02-29T13:13:29.692Z,3.07
2024-02-29T13:15:57.686Z,3.57
2024-02-29T13:18:25.378Z,2.60
2024-02-29T13:20:54.369Z,2.70
2024-02-29T13:23:21.998Z,3.00
2024-02-29T13:25:49.862Z,2.70
2024-02-29T13:28:16.651Z,3.00
2024-02-29T13:30:44.447Z,2.10
2024-02-29T13:33:12.355Z,2.20
2024-02-29T13:35:40.065Z,2.50
2024-02-29T13:38:09.125Z,2.50
2024-02-29T13:40:36.890Z,2.40
2024-02-29T13:43:04.699Z,3.13
2024-02-29T13:45:37.790Z,2.87
2024-02-29T13:48:06.312Z,2.57
2024-02-29T13:50:34.240Z,2.90
2024-02-29T13:53:02.055Z,3.10
2024-02-29T13:55:31.122Z,2.80
2024-02-29T13:57:58.858Z,3.00
2024-02-29T14:00:26.644Z,3.13
2024-02-29T14:02:54.286Z,3.20
2024-02-29T14:05:21.972Z,2.97
2024-02-29T14:07:49.711Z,2.70
2024-02-29T14:10:17.786Z,2.33
2024-02-29T14:12:48.569Z,3.80
2024-02-29T14:15:21.520Z,3.00
2024-02-29T14:17:50.889Z,3.10
2024-02-29T14:20:18.792Z,2.60
2024-02-29T14:22:46.569Z,3.30
2024-02-29T14:25:14.477Z,3.43
2024-02-29T14:27:43.037Z,3.00
2024-02-29T14:30:14.297Z,2.80
2024-02-29T14:32:42.898Z,3.40
2024-02-29T14:35:11.095Z,3.03
2024-02-29T14:37:38.808Z,3.40
2024-02-29T14:40:09.242Z,3.30
2024-02-29T14:42:36.938Z,3.60
2024-02-29T14:45:04.965Z,3.10
2024-02-29T14:47:34.002Z,3.13
2024-02-29T14:50:01.731Z,3.63
2024-02-29T14:52:29.536Z,3.70
2024-02-29T14:54:57.399Z,3.83
2024-02-29T14:57:25.228Z,3.07
2024-02-29T14:59:52.954Z,3.20
2024-02-29T15:02:20.989Z,3.33
2024-02-29T15:04:50.026Z,4.07
2024-02-29T15:07:17.691Z,3.80
2024-02-29T15:09:45.448Z,3.73
2024-02-29T15:12:13.339Z,4.63
2024-02-29T15:14:40.960Z,2.90
2024-02-29T15:17:08.658Z,4.43
2024-02-29T15:19:36.480Z,3.07
2024-02-29T15:22:05.543Z,2.97
2024-02-29T15:24:33.199Z,3.80
2024-02-29T15:27:00.962Z,3.90
2024-02-29T15:29:28.584Z,3.10
2024-02-29T15:31:56.240Z,3.13
2024-02-29T15:34:24.080Z,3.40
2024-02-29T15:36:51.843Z,4.17
2024-02-29T15:39:20.852Z,3.00
2024-02-29T15:41:48.485Z,3.63
2024-02-29T15:44:16.142Z,3.23
2024-02-29T15:46:46.369Z,4.17
2024-02-29T15:49:15.284Z,3.90
2024-02-29T15:51:43.024Z,3.00
2024-02-29T15:54:10.686Z,3.33
2024-02-29T15:56:39.758Z,3.07
2024-02-29T15:59:07.557Z,3.00
2024-02-29T16:01:35.338Z,2.77
2024-02-29T16:04:03.339Z,2.83
2024-02-29T16:06:30.975Z,2.40
2024-02-29T16:08:58.834Z,2.33
2024-02-29T16:11:26.655Z,2.90
2024-02-29T16:13:55.928Z,2.90
2024-02-29T16:16:24.113Z,2.70
2024-02-29T16:18:51.891Z,2.60
2024-02-29T16:21:19.552Z,2.90
2024-02-29T16:23:47.193Z,2.33
2024-02-29T16:26:16.223Z,2.60
2024-02-29T16:28:43.974Z,3.33
2024-02-29T16:31:13.148Z,2.63
2024-02-29T16:33:41.040Z,2.53
2024-02-29T16:36:09.131Z,2.50
2024-02-29T16:38:38.337Z,3.10
2024-02-29T16:41:06.201Z,2.23
2024-02-29T16:43:33.995Z,2.87
2024-02-29T16:46:01.809Z,2.20
2024-02-29T16:48:30.898Z,2.60
2024-02-29T16:51:00.074Z,3.00
2024-02-29T16:53:27.843Z,2.10
2024-02-29T16:55:55.711Z,2.33
2024-02-29T16:58:23.787Z,2.80
2024-02-29T17:00:52.684Z,2.57
2024-02-29T17:03:20.398Z,3.13
2024-02-29T17:05:49.379Z,2.60
2024-02-29T17:08:17.079Z,2.77
2024-02-29T17:10:45.008Z,2.50
2024-02-29T17:13:12.777Z,2.10
2024-02-29T17:15:40.481Z,2.77
2024-02-29T17:18:08.221Z,1.83
2024-02-29T17:20:36.029Z,2.57
2024-02-29T17:23:05.631Z,2.83
2024-02-29T17:25:34.836Z,2.27
2024-02-29T17:28:02.571Z,3.07
2024-02-29T17:30:30.256Z,3.17
2024-02-29T17:32:58.001Z,2.63
2024-02-29T17:35:29.148Z,3.87
2024-02-29T17:37:58.030Z,2.57
2024-02-29T17:40:27.424Z,2.53
2024-02-29T17:42:55.919Z,2.83
2024-02-29T17:45:23.601Z,2.90
2024-02-29T17:47:51.355Z,2.70
2024-02-29T17:50:20.636Z,2.73
2024-02-29T17:52:49.443Z,2.60
2024-02-29T17:55:18.062Z,2.67
2024-02-29T17:57:47.520Z,2.90
2024-02-29T18:00:16.387Z,3.77
2024-02-29T18:02:44.243Z,3.27
2024-02-29T18:05:12.488Z,2.70
2024-02-29T18:07:46.728Z,2.17
2024-02-29T18:10:19.049Z,3.00
2024-02-29T18:12:48.123Z,2.07
2024-02-29T18:15:16.137Z,2.60
2024-02-29T18:17:44.711Z,2.60
2024-02-29T18:20:15.353Z,2.77
2024-02-29T18:22:43.087Z,3.00
2024-02-29T18:25:11.396Z,3.27
2024-02-29T18:27:39.363Z,2.40
2024-02-29T18:30:09.958Z,2.90
2024-02-29T18:32:37.658Z,2.97
2024-02-29T18:35:09.693Z,3.13
2024-02-29T18:37:37.754Z,3.43
2024-02-29T18:40:06.444Z,3.30
2024-02-29T18:42:34.097Z,3.43
2024-02-29T18:45:02.197Z,3.73
2024-02-29T18:47:31.547Z,3.40
2024-02-29T18:49:59.678Z,4.00
2024-02-29T18:52:27.469Z,3.83
2024-02-29T18:54:55.355Z,4.20
2024-02-29T18:57:23.511Z,4.67
2024-02-29T18:59:51.425Z,4.13
2024-02-29T19:02:19.099Z,4.43
2024-02-29T19:04:52.209Z,6.07
2024-02-29T19:07:20.744Z,4.90
2024-02-29T19:09:49.195Z,4.40
2024-02-29T19:12:16.920Z,4.93
2024-02-29T19:14:44.594Z,4.40
2024-02-29T19:17:13.029Z,4.73
2024-02-29T19:19:40.650Z,4.73
2024-02-29T19:22:09.672Z,6.07
2024-02-29T19:24:37.328Z,4.22
2024-02-29T19:27:05.858Z,6.10
2024-02-29T19:29:34.393Z,4.73
2024-02-29T19:32:02.061Z,5.70
2024-02-29T19:34:29.790Z,5.07
2024-02-29T19:36:57.614Z,4.67
2024-02-29T19:39:26.861Z,5.07
2024-02-29T19:41:54.462Z,5.23
2024-02-29T19:44:22.117Z,4.60
2024-02-29T19:46:49.776Z,4.95
2024-02-29T19:49:18.689Z,5.20
2024-02-29T19:51:46.670Z,5.45
2024-02-29T19:54:14.857Z,5.18
2024-02-29T19:56:43.934Z,4.75
2024-02-29T19:59:11.682Z,5.80
2024-02-29T20:01:41.571Z,5.32
2024-02-29T20:04:09.439Z,5.30
2024-02-29T20:06:37.269Z,5.35
2024-02-29T20:09:05.649Z,4.55
2024-02-29T20:11:33.368Z,4.82
2024-02-29T20:14:05.262Z,5.22
2024-02-29T20:16:32.933Z,4.68
2024-02-29T20:19:00.673Z,5.67
2024-02-29T20:21:28.387Z,4.95
2024-02-29T20:23:56.089Z,4.90
2024-02-29T20:26:24.569Z,4.90
2024-02-29T20:28:52.182Z,5.13
2024-02-29T20:31:21.306Z,4.60
2024-02-29T20:33:48.983Z,4.45
2024-02-29T20:36:16.741Z,5.43
2024-02-29T20:38:44.591Z,4.75
2024-02-29T20:41:12.393Z,5.67
2024-02-29T20:43:40.121Z,5.65
2024-02-29T20:46:09.233Z,6.15
2024-02-29T20:48:38.917Z,5.10
2024-02-29T20:51:06.787Z,4.97
2024-02-29T20:53:34.522Z,5.72
2024-02-29T20:56:02.388Z,4.72
2024-02-29T20:58:30.177Z,5.40
2024-02-29T21:00:57.956Z,4.80
2024-02-29T21:03:26.162Z,5.10
2024-02-29T21:05:55.263Z,5.82
2024-02-29T21:08:22.935Z,4.82
2024-02-29T21:10:50.859Z,5.03
2024-02-29T21:13:18.635Z,5.68
2024-02-29T21:15:46.833Z,5.35
2024-02-29T21:18:14.544Z,5.18
2024-02-29T21:20:42.406Z,4.47
2024-02-29T21:23:11.404Z,6.07
2024-02-29T21:25:39.347Z,5.18
2024-02-29T21:28:07.155Z,5.28
2024-02-29T21:30:34.880Z,5.57
2024-02-29T21:33:02.593Z,5.13
2024-02-29T21:35:30.624Z,5.65
2024-02-29T21:37:58.278Z,5.55
2024-02-29T21:40:27.346Z,5.35
2024-02-29T21:42:55.442Z,4.95
2024-02-29T21:45:23.304Z,5.43
2024-02-29T21:47:50.971Z,6.38
2024-02-29T21:50:19.081Z,5.30
2024-02-29T21:52:46.760Z,6.25
2024-02-29T21:55:16.683Z,6.53
2024-02-29T21:57:46.941Z,5.90
2024-02-29T22:00:16.265Z,6.38
2024-02-29T22:02:44.283Z,6.93
2024-02-29T22:05:13.152Z,7.05
2024-02-29T22:07:42.539Z,7.13
2024-02-29T22:10:11.091Z,6.85
2024-02-29T22:12:38.820Z,6.57
2024-02-29T22:15:09.547Z,6.65
2024-02-29T22:17:37.792Z,6.97
2024-02-29T22:20:06.698Z,6.90
2024-02-29T22:22:34.437Z,7.22
2024-02-29T22:25:02.211Z,7.20
2024-02-29T22:27:29.882Z,8.20
2024-02-29T22:29:57.569Z,7.57
2024-02-29T22:32:26.613Z,7.45
2024-02-29T22:34:53.299Z,7.75
2024-02-29T22:37:21.162Z,7.63
2024-02-29T22:39:49.381Z,7.70
2024-02-29T22:42:17.074Z,8.27
2024-02-29T22:44:44.721Z,8.32
2024-02-29T22:47:12.369Z,8.95
2024-02-29T22:49:41.370Z,9.63
2024-02-29T22:52:09.095Z,8.13
2024-02-29T22:54:36.806Z,8.30
2024-02-29T22:57:06.030Z,9.05
2024-02-29T22:59:33.667Z,9.50
2024-02-29T23:02:01.578Z,10.15
2024-02-29T23:04:29.347Z,9.75
2024-02-29T23:06:58.854Z,9.68
2024-02-29T23:09:26.656Z,9.55
2024-02-29T23:11:54.392Z,10.65
2024-02-29T23:14:22.086Z,10.23
2024-02-29T23:16:49.886Z,10.93
2024-02-29T23:19:17.672Z,10.63
2024-02-29T23:21:45.929Z,12.30
2024-02-29T23:24:15.732Z,10.73
2024-02-29T23:26:43.855Z,10.23
2024-02-29T23:29:11.476Z,10.68
2024-02-29T23:31:39.715Z,10.20
2024-02-29T23:34:07.449Z,11.40
2024-02-29T23:36:35.123Z,11.13
2024-02-29T23:39:02.751Z,10.35
2024-02-29T23:41:31.925Z,10.43
2024-02-29T23:44:00.414Z,11.90
2024-02-29T23:46:28.274Z,11.63
2024-02-29T23:48:56.012Z,10.85
2024-02-29T23:51:23.694Z,10.20
2024-02-29T23:53:51.328Z,11.27
2024-02-29T23:56:18.957Z,11.18
2024-02-29T23:58:47.944Z,10.85
